sensor_id;sensor_type;location;lat;lon;timestamp;P1;durP1;ratioP1;P2;durP2;ratioP2
1140;SDS011;559;48.628;8.924;2023-06-22T00:01:57;190.53;;;180.27;;
1140;SDS011;559;48.628;8.924;2023-06-22T00:04:24;201.47;;;190.53;;
1140;SDS011;559;48.628;8.924;2023-06-22T00:06:50;194.33;;;183.73;;
1140;SDS011;559;48.628;8.924;2023-06-22T00:09:17;201.23;;;189.97;;
1140;SDS011;559;48.628;8.924;2023-06-22T00:11:44;197.83;;;186.73;;
1140;SDS011;559;48.628;8.924;2023-06-22T00:14:11;201.73;;;190.93;;
1140;SDS011;559;48.628;8.924;2023-06-22T00:16:38;207.73;;;196.83;;
1140;SDS011;559;48.628;8.924;2023-06-22T00:19:04;201.40;;;190.50;;
1140;SDS011;559;48.628;8.924;2023-06-22T00:21:31;194.60;;;183.70;;
1140;SDS011;559;48.628;8.924;2023-06-22T00:23:57;204.13;;;193.10;;
1140;SDS011;559;48.628;8.924;2023-06-22T00:26:24;212.57;;;200.97;;
1140;SDS011;559;48.628;8.924;2023-06-22T00:28:50;209.40;;;197.93;;
1140;SDS011;559;48.628;8.924;2023-06-22T00:31:18;199.53;;;188.47;;
1140;SDS011;559;48.628;8.924;2023-06-22T00:33:45;214.50;;;203.23;;
1140;SDS011;559;48.628;8.924;2023-06-22T00:36:12;211.70;;;200.30;;
1140;SDS011;559;48.628;8.924;2023-06-22T00:38:41;202.17;;;191.27;;
1140;SDS011;559;48.628;8.924;2023-06-22T00:41:07;205.40;;;194.47;;
1140;SDS011;559;48.628;8.924;2023-06-22T00:43:34;205.90;;;194.80;;
1140;SDS011;559;48.628;8.924;2023-06-22T00:46:00;202.57;;;191.67;;
1140;SDS011;559;48.628;8.924;2023-06-22T00:48:29;205.67;;;194.40;;
1140;SDS011;559;48.628;8.924;2023-06-22T00:50:55;195.93;;;184.93;;
1140;SDS011;559;48.628;8.924;2023-06-22T00:53:22;195.07;;;184.17;;
1140;SDS011;559;48.628;8.924;2023-06-22T00:55:48;202.27;;;191.03;;
1140;SDS011;559;48.628;8.924;2023-06-22T00:58:16;209.17;;;197.87;;
1140;SDS011;559;48.628;8.924;2023-06-22T01:00:46;193.87;;;182.57;;
1140;SDS011;559;48.628;8.924;2023-06-22T01:03:13;196.47;;;185.47;;
1140;SDS011;559;48.628;8.924;2023-06-22T01:05:43;207.37;;;195.70;;
1140;SDS011;559;48.628;8.924;2023-06-22T01:08:23;216.93;;;204.90;;
1140;SDS011;559;48.628;8.924;2023-06-22T01:10:58;208.57;;;196.70;;
1140;SDS011;559;48.628;8.924;2023-06-22T01:13:30;204.03;;;192.73;;
1140;SDS011;559;48.628;8.924;2023-06-22T01:16:00;211.60;;;200.00;;
1140;SDS011;559;48.628;8.924;2023-06-22T01:18:29;225.30;;;213.23;;
1140;SDS011;559;48.628;8.924;2023-06-22T01:20:57;218.77;;;206.73;;
1140;SDS011;559;48.628;8.924;2023-06-22T01:23:27;211.83;;;200.27;;
1140;SDS011;559;48.628;8.924;2023-06-22T01:26:12;226.50;;;214.30;;
1140;SDS011;559;48.628;8.924;2023-06-22T01:28:46;191.23;;;180.07;;
1140;SDS011;559;48.628;8.924;2023-06-22T01:31:14;183.87;;;172.70;;
1140;SDS011;559;48.628;8.924;2023-06-22T01:33:43;203.57;;;191.97;;
1140;SDS011;559;48.628;8.924;2023-06-22T01:36:11;217.80;;;206.13;;
1140;SDS011;559;48.628;8.924;2023-06-22T01:38:38;211.87;;;200.27;;
1140;SDS011;559;48.628;8.924;2023-06-22T01:41:05;214.90;;;203.00;;
1140;SDS011;559;48.628;8.924;2023-06-22T01:43:31;221.97;;;209.87;;
1140;SDS011;559;48.628;8.924;2023-06-22T01:46:01;234.93;;;222.53;;
1140;SDS011;559;48.628;8.924;2023-06-22T01:48:28;212.20;;;200.20;;
1140;SDS011;559;48.628;8.924;2023-06-22T01:51:01;197.87;;;186.40;;
1140;SDS011;559;48.628;8.924;2023-06-22T01:53:28;209.03;;;197.40;;
1140;SDS011;559;48.628;8.924;2023-06-22T01:55:55;223.47;;;210.87;;
1140;SDS011;559;48.628;8.924;2023-06-22T01:58:22;228.23;;;215.63;;
1140;SDS011;559;48.628;8.924;2023-06-22T02:00:51;241.97;;;228.87;;
1140;SDS011;559;48.628;8.924;2023-06-22T02:03:21;223.10;;;210.67;;
1140;SDS011;559;48.628;8.924;2023-06-22T02:05:50;220.57;;;208.17;;
1140;SDS011;559;48.628;8.924;2023-06-22T02:08:19;204.43;;;192.43;;
1140;SDS011;559;48.628;8.924;2023-06-22T02:10:47;220.20;;;207.60;;
1140;SDS011;559;48.628;8.924;2023-06-22T02:13:14;231.97;;;219.47;;
1140;SDS011;559;48.628;8.924;2023-06-22T02:15:42;214.73;;;202.73;;
1140;SDS011;559;48.628;8.924;2023-06-22T02:18:08;193.83;;;182.60;;
1140;SDS011;559;48.628;8.924;2023-06-22T02:20:37;218.90;;;205.77;;
1140;SDS011;559;48.628;8.924;2023-06-22T02:23:04;230.90;;;217.87;;
1140;SDS011;559;48.628;8.924;2023-06-22T02:25:31;227.10;;;214.30;;
1140;SDS011;559;48.628;8.924;2023-06-22T02:27:57;236.00;;;223.10;;
1140;SDS011;559;48.628;8.924;2023-06-22T02:30:24;225.83;;;213.00;;
1140;SDS011;559;48.628;8.924;2023-06-22T02:32:50;219.93;;;207.13;;
1140;SDS011;559;48.628;8.924;2023-06-22T02:35:23;226.03;;;213.50;;
1140;SDS011;559;48.628;8.924;2023-06-22T02:37:51;221.20;;;209.03;;
1140;SDS011;559;48.628;8.924;2023-06-22T02:40:18;221.03;;;208.63;;
1140;SDS011;559;48.628;8.924;2023-06-22T02:42:44;225.70;;;213.50;;
1140;SDS011;559;48.628;8.924;2023-06-22T02:45:11;237.93;;;225.47;;
1140;SDS011;559;48.628;8.924;2023-06-22T02:47:37;230.27;;;217.50;;
1140;SDS011;559;48.628;8.924;2023-06-22T02:50:04;192.60;;;179.70;;
1140;SDS011;559;48.628;8.924;2023-06-22T02:52:31;176.20;;;165.43;;
1140;SDS011;559;48.628;8.924;2023-06-22T02:55:00;201.00;;;187.93;;
1140;SDS011;559;48.628;8.924;2023-06-22T02:57:26;215.63;;;203.40;;
1140;SDS011;559;48.628;8.924;2023-06-22T02:59:53;216.73;;;204.33;;
1140;SDS011;559;48.628;8.924;2023-06-22T03:02:20;229.50;;;216.90;;
1140;SDS011;559;48.628;8.924;2023-06-22T03:04:46;225.43;;;213.03;;
1140;SDS011;559;48.628;8.924;2023-06-22T03:07:14;205.47;;;193.87;;
1140;SDS011;559;48.628;8.924;2023-06-22T03:09:42;230.47;;;218.23;;
1140;SDS011;559;48.628;8.924;2023-06-22T03:12:10;237.20;;;224.63;;
1140;SDS011;559;48.628;8.924;2023-06-22T03:14:36;235.67;;;223.03;;
1140;SDS011;559;48.628;8.924;2023-06-22T03:17:03;228.27;;;215.47;;
1140;SDS011;559;48.628;8.924;2023-06-22T03:19:31;226.80;;;214.53;;
1140;SDS011;559;48.628;8.924;2023-06-22T03:21:58;232.27;;;219.43;;
1140;SDS011;559;48.628;8.924;2023-06-22T03:24:25;217.93;;;205.70;;
1140;SDS011;559;48.628;8.924;2023-06-22T03:26:53;220.70;;;208.77;;
1140;SDS011;559;48.628;8.924;2023-06-22T03:29:21;223.83;;;211.63;;
1140;SDS011;559;48.628;8.924;2023-06-22T03:31:49;224.53;;;212.73;;
1140;SDS011;559;48.628;8.924;2023-06-22T03:34:15;212.27;;;199.53;;
1140;SDS011;559;48.628;8.924;2023-06-22T03:36:42;220.07;;;208.07;;
1140;SDS011;559;48.628;8.924;2023-06-22T03:39:10;219.37;;;207.40;;
1140;SDS011;559;48.628;8.924;2023-06-22T03:41:37;190.73;;;179.60;;
1140;SDS011;559;48.628;8.924;2023-06-22T03:44:04;199.23;;;187.30;;
1140;SDS011;559;48.628;8.924;2023-06-22T03:46:31;186.47;;;175.17;;
1140;SDS011;559;48.628;8.924;2023-06-22T03:48:58;199.97;;;187.97;;
1140;SDS011;559;48.628;8.924;2023-06-22T03:51:24;207.33;;;194.70;;
1140;SDS011;559;48.628;8.924;2023-06-22T03:53:51;198.77;;;186.83;;
1140;SDS011;559;48.628;8.924;2023-06-22T03:56:17;199.20;;;187.33;;
1140;SDS011;559;48.628;8.924;2023-06-22T03:58:45;188.97;;;177.60;;
1140;SDS011;559;48.628;8.924;2023-06-22T04:01:12;187.83;;;176.83;;
1140;SDS011;559;48.628;8.924;2023-06-22T04:03:40;182.67;;;171.47;;
1140;SDS011;559;48.628;8.924;2023-06-22T04:06:07;181.93;;;171.17;;
1140;SDS011;559;48.628;8.924;2023-06-22T04:08:34;173.33;;;162.83;;
1140;SDS011;559;48.628;8.924;2023-06-22T04:11:00;179.17;;;168.50;;
1140;SDS011;559;48.628;8.924;2023-06-22T04:13:27;170.53;;;159.70;;
1140;SDS011;559;48.628;8.924;2023-06-22T04:15:53;172.93;;;161.97;;
1140;SDS011;559;48.628;8.924;2023-06-22T04:18:20;160.90;;;150.43;;
1140;SDS011;559;48.628;8.924;2023-06-22T04:20:48;161.53;;;151.33;;
1140;SDS011;559;48.628;8.924;2023-06-22T04:23:14;165.33;;;154.97;;
1140;SDS011;559;48.628;8.924;2023-06-22T04:25:40;151.93;;;140.73;;
1140;SDS011;559;48.628;8.924;2023-06-22T04:28:07;172.00;;;160.67;;
1140;SDS011;559;48.628;8.924;2023-06-22T04:30:37;173.17;;;160.87;;
1140;SDS011;559;48.628;8.924;2023-06-22T04:33:11;177.60;;;165.80;;
1140;SDS011;559;48.628;8.924;2023-06-22T04:35:37;175.20;;;163.67;;
1140;SDS011;559;48.628;8.924;2023-06-22T04:38:07;158.10;;;147.17;;
1140;SDS011;559;48.628;8.924;2023-06-22T04:40:34;152.70;;;142.57;;
1140;SDS011;559;48.628;8.924;2023-06-22T04:43:00;172.67;;;161.77;;
1140;SDS011;559;48.628;8.924;2023-06-22T04:45:28;177.33;;;166.13;;
1140;SDS011;559;48.628;8.924;2023-06-22T04:47:55;172.40;;;161.37;;
1140;SDS011;559;48.628;8.924;2023-06-22T04:50:21;175.70;;;164.60;;
1140;SDS011;559;48.628;8.924;2023-06-22T04:52:49;163.30;;;152.90;;
1140;SDS011;559;48.628;8.924;2023-06-22T04:55:18;156.97;;;146.67;;
1140;SDS011;559;48.628;8.924;2023-06-22T04:57:45;162.97;;;152.27;;
1140;SDS011;559;48.628;8.924;2023-06-22T05:00:14;147.80;;;138.20;;
1140;SDS011;559;48.628;8.924;2023-06-22T05:02:42;145.00;;;135.70;;
1140;SDS011;559;48.628;8.924;2023-06-22T05:05:09;136.73;;;126.90;;
1140;SDS011;559;48.628;8.924;2023-06-22T05:07:38;163.00;;;152.63;;
1140;SDS011;559;48.628;8.924;2023-06-22T05:10:08;167.40;;;157.00;;
1140;SDS011;559;48.628;8.924;2023-06-22T05:12:36;163.47;;;153.07;;
1140;SDS011;559;48.628;8.924;2023-06-22T05:15:03;153.53;;;143.57;;
1140;SDS011;559;48.628;8.924;2023-06-22T05:17:31;153.70;;;143.60;;
1140;SDS011;559;48.628;8.924;2023-06-22T05:19:57;166.23;;;155.53;;
1140;SDS011;559;48.628;8.924;2023-06-22T05:22:25;157.93;;;147.40;;
1140;SDS011;559;48.628;8.924;2023-06-22T05:24:51;159.63;;;149.27;;
1140;SDS011;559;48.628;8.924;2023-06-22T05:27:18;147.53;;;137.50;;
1140;SDS011;559;48.628;8.924;2023-06-22T05:29:46;144.77;;;134.83;;
1140;SDS011;559;48.628;8.924;2023-06-22T05:32:12;144.37;;;134.80;;
1140;SDS011;559;48.628;8.924;2023-06-22T05:34:39;149.73;;;140.10;;
1140;SDS011;559;48.628;8.924;2023-06-22T05:37:06;141.47;;;132.17;;
1140;SDS011;559;48.628;8.924;2023-06-22T05:39:34;137.60;;;128.40;;
1140;SDS011;559;48.628;8.924;2023-06-22T05:42:03;125.70;;;116.30;;
1140;SDS011;559;48.628;8.924;2023-06-22T05:44:30;126.40;;;117.93;;
1140;SDS011;559;48.628;8.924;2023-06-22T05:46:58;120.90;;;112.27;;
1140;SDS011;559;48.628;8.924;2023-06-22T05:49:25;119.63;;;111.00;;
1140;SDS011;559;48.628;8.924;2023-06-22T05:51:54;116.80;;;108.40;;
1140;SDS011;559;48.628;8.924;2023-06-22T05:54:21;123.53;;;114.90;;
1140;SDS011;559;48.628;8.924;2023-06-22T05:56:47;109.43;;;100.80;;
1140;SDS011;559;48.628;8.924;2023-06-22T05:59:14;106.23;;;98.53;;
1140;SDS011;559;48.628;8.924;2023-06-22T06:01:40;105.60;;;97.63;;
1140;SDS011;559;48.628;8.924;2023-06-22T06:04:08;105.20;;;97.00;;
1140;SDS011;559;48.628;8.924;2023-06-22T06:06:35;105.83;;;97.33;;
1140;SDS011;559;48.628;8.924;2023-06-22T06:09:02;99.90;;;92.40;;
1140;SDS011;559;48.628;8.924;2023-06-22T06:11:28;100.63;;;93.10;;
1140;SDS011;559;48.628;8.924;2023-06-22T06:13:55;99.73;;;92.13;;
1140;SDS011;559;48.628;8.924;2023-06-22T06:16:22;94.43;;;87.43;;
1140;SDS011;559;48.628;8.924;2023-06-22T06:18:48;102.33;;;94.73;;
1140;SDS011;559;48.628;8.924;2023-06-22T06:21:17;102.60;;;95.00;;
1140;SDS011;559;48.628;8.924;2023-06-22T06:23:43;94.10;;;86.80;;
1140;SDS011;559;48.628;8.924;2023-06-22T06:26:10;92.87;;;85.80;;
1140;SDS011;559;48.628;8.924;2023-06-22T06:28:36;96.20;;;88.70;;
1140;SDS011;559;48.628;8.924;2023-06-22T06:31:03;89.30;;;82.30;;
1140;SDS011;559;48.628;8.924;2023-06-22T06:33:32;81.90;;;75.23;;
1140;SDS011;559;48.628;8.924;2023-06-22T06:35:58;77.30;;;71.00;;
1140;SDS011;559;48.628;8.924;2023-06-22T06:38:28;80.67;;;74.20;;
1140;SDS011;559;48.628;8.924;2023-06-22T06:40:55;80.40;;;73.80;;
1140;SDS011;559;48.628;8.924;2023-06-22T06:43:21;79.93;;;73.87;;
1140;SDS011;559;48.628;8.924;2023-06-22T06:45:48;80.17;;;74.17;;
1140;SDS011;559;48.628;8.924;2023-06-22T06:48:15;76.10;;;70.33;;
1140;SDS011;559;48.628;8.924;2023-06-22T06:50:42;75.00;;;69.50;;
1140;SDS011;559;48.628;8.924;2023-06-22T06:53:09;75.27;;;69.57;;
1140;SDS011;559;48.628;8.924;2023-06-22T06:55:38;79.10;;;73.30;;
1140;SDS011;559;48.628;8.924;2023-06-22T06:58:05;72.27;;;66.80;;
1140;SDS011;559;48.628;8.924;2023-06-22T07:00:33;69.77;;;64.57;;
1140;SDS011;559;48.628;8.924;2023-06-22T07:03:00;69.73;;;64.53;;
1140;SDS011;559;48.628;8.924;2023-06-22T07:05:27;69.00;;;64.20;;
1140;SDS011;559;48.628;8.924;2023-06-22T07:07:54;66.70;;;61.90;;
1140;SDS011;559;48.628;8.924;2023-06-22T07:10:20;66.53;;;61.90;;
1140;SDS011;559;48.628;8.924;2023-06-22T07:12:48;65.10;;;60.40;;
1140;SDS011;559;48.628;8.924;2023-06-22T07:15:14;64.93;;;60.53;;
1140;SDS011;559;48.628;8.924;2023-06-22T07:17:41;66.33;;;61.73;;
1140;SDS011;559;48.628;8.924;2023-06-22T07:20:08;63.80;;;59.37;;
1140;SDS011;559;48.628;8.924;2023-06-22T07:22:37;66.87;;;61.80;;
1140;SDS011;559;48.628;8.924;2023-06-22T07:25:04;64.83;;;60.47;;
1140;SDS011;559;48.628;8.924;2023-06-22T07:27:34;62.20;;;58.10;;
1140;SDS011;559;48.628;8.924;2023-06-22T07:30:04;59.53;;;56.00;;
1140;SDS011;559;48.628;8.924;2023-06-22T07:32:32;66.20;;;61.83;;
1140;SDS011;559;48.628;8.924;2023-06-22T07:34:59;62.87;;;58.97;;
1140;SDS011;559;48.628;8.924;2023-06-22T07:37:26;57.90;;;54.50;;
1140;SDS011;559;48.628;8.924;2023-06-22T07:39:53;58.70;;;55.13;;
1140;SDS011;559;48.628;8.924;2023-06-22T07:42:23;58.40;;;54.60;;
1140;SDS011;559;48.628;8.924;2023-06-22T07:44:50;56.23;;;53.03;;
1140;SDS011;559;48.628;8.924;2023-06-22T07:47:18;58.20;;;54.90;;
1140;SDS011;559;48.628;8.924;2023-06-22T07:49:45;53.70;;;50.60;;
1140;SDS011;559;48.628;8.924;2023-06-22T07:52:11;56.60;;;53.53;;
1140;SDS011;559;48.628;8.924;2023-06-22T07:54:38;55.70;;;52.53;;
1140;SDS011;559;48.628;8.924;2023-06-22T07:57:04;54.00;;;51.07;;
1140;SDS011;559;48.628;8.924;2023-06-22T07:59:31;56.10;;;52.80;;
1140;SDS011;559;48.628;8.924;2023-06-22T08:01:58;57.43;;;53.97;;
1140;SDS011;559;48.628;8.924;2023-06-22T08:04:26;53.57;;;50.67;;
1140;SDS011;559;48.628;8.924;2023-06-22T08:06:53;56.40;;;53.63;;
1140;SDS011;559;48.628;8.924;2023-06-22T08:09:20;56.53;;;53.83;;
1140;SDS011;559;48.628;8.924;2023-06-22T08:11:47;56.87;;;54.13;;
1140;SDS011;559;48.628;8.924;2023-06-22T08:14:14;58.97;;;56.17;;
1140;SDS011;559;48.628;8.924;2023-06-22T08:16:40;60.23;;;57.43;;
1140;SDS011;559;48.628;8.924;2023-06-22T08:19:07;59.90;;;57.10;;
1140;SDS011;559;48.628;8.924;2023-06-22T08:21:35;60.30;;;57.50;;
1140;SDS011;559;48.628;8.924;2023-06-22T08:24:03;64.97;;;62.07;;
1140;SDS011;559;48.628;8.924;2023-06-22T08:26:29;63.70;;;60.40;;
1140;SDS011;559;48.628;8.924;2023-06-22T08:28:58;66.20;;;63.10;;
1140;SDS011;559;48.628;8.924;2023-06-22T08:31:24;70.17;;;66.30;;
1140;SDS011;559;48.628;8.924;2023-06-22T08:33:51;68.07;;;64.43;;
1140;SDS011;559;48.628;8.924;2023-06-22T08:36:17;71.23;;;67.93;;
1140;SDS011;559;48.628;8.924;2023-06-22T08:38:45;72.23;;;68.83;;
1140;SDS011;559;48.628;8.924;2023-06-22T08:41:16;73.60;;;69.93;;
1140;SDS011;559;48.628;8.924;2023-06-22T08:43:42;75.00;;;71.07;;
1140;SDS011;559;48.628;8.924;2023-06-22T08:46:09;79.80;;;76.03;;
1140;SDS011;559;48.628;8.924;2023-06-22T08:48:36;77.47;;;73.50;;
1140;SDS011;559;48.628;8.924;2023-06-22T08:51:04;74.90;;;71.30;;
1140;SDS011;559;48.628;8.924;2023-06-22T08:53:31;74.40;;;71.20;;
1140;SDS011;559;48.628;8.924;2023-06-22T08:55:58;76.67;;;73.27;;
1140;SDS011;559;48.628;8.924;2023-06-22T08:58:25;77.27;;;73.40;;
1140;SDS011;559;48.628;8.924;2023-06-22T09:00:52;76.73;;;73.33;;
1140;SDS011;559;48.628;8.924;2023-06-22T09:03:18;75.27;;;71.47;;
1140;SDS011;559;48.628;8.924;2023-06-22T09:05:45;80.20;;;76.70;;
1140;SDS011;559;48.628;8.924;2023-06-22T09:08:12;78.30;;;74.77;;
1140;SDS011;559;48.628;8.924;2023-06-22T09:10:38;75.53;;;72.03;;
1140;SDS011;559;48.628;8.924;2023-06-22T09:13:06;77.20;;;74.10;;
1140;SDS011;559;48.628;8.924;2023-06-22T09:15:33;75.93;;;72.83;;
1140;SDS011;559;48.628;8.924;2023-06-22T09:18:00;71.83;;;68.70;;
1140;SDS011;559;48.628;8.924;2023-06-22T09:20:26;73.30;;;70.47;;
1140;SDS011;559;48.628;8.924;2023-06-22T09:22:53;71.53;;;68.93;;
1140;SDS011;559;48.628;8.924;2023-06-22T09:25:20;66.73;;;63.90;;
1140;SDS011;559;48.628;8.924;2023-06-22T09:27:46;70.30;;;67.77;;
1140;SDS011;559;48.628;8.924;2023-06-22T09:30:15;64.53;;;62.07;;
1140;SDS011;559;48.628;8.924;2023-06-22T09:32:41;62.47;;;60.10;;
1140;SDS011;559;48.628;8.924;2023-06-22T09:35:09;60.53;;;58.47;;
1140;SDS011;559;48.628;8.924;2023-06-22T09:37:37;57.33;;;55.20;;
1140;SDS011;559;48.628;8.924;2023-06-22T09:40:05;55.27;;;52.97;;
1140;SDS011;559;48.628;8.924;2023-06-22T09:42:35;54.07;;;52.10;;
1140;SDS011;559;48.628;8.924;2023-06-22T09:45:02;51.03;;;49.03;;
1140;SDS011;559;48.628;8.924;2023-06-22T09:47:30;53.93;;;51.83;;
1140;SDS011;559;48.628;8.924;2023-06-22T09:49:57;52.30;;;50.27;;
1140;SDS011;559;48.628;8.924;2023-06-22T09:52:25;60.07;;;57.60;;
1140;SDS011;559;48.628;8.924;2023-06-22T09:54:51;53.93;;;51.73;;
1140;SDS011;559;48.628;8.924;2023-06-22T09:57:19;43.90;;;42.13;;
1140;SDS011;559;48.628;8.924;2023-06-22T09:59:47;64.97;;;62.57;;
1140;SDS011;559;48.628;8.924;2023-06-22T10:02:17;72.63;;;69.47;;
1140;SDS011;559;48.628;8.924;2023-06-22T10:04:46;77.80;;;75.00;;
1140;SDS011;559;48.628;8.924;2023-06-22T10:07:24;71.10;;;68.70;;
1140;SDS011;559;48.628;8.924;2023-06-22T10:09:52;53.63;;;51.43;;
1140;SDS011;559;48.628;8.924;2023-06-22T10:12:19;44.73;;;43.00;;
1140;SDS011;559;48.628;8.924;2023-06-22T10:14:46;58.37;;;56.37;;
1140;SDS011;559;48.628;8.924;2023-06-22T10:17:13;60.03;;;57.63;;
1140;SDS011;559;48.628;8.924;2023-06-22T10:19:40;57.40;;;54.60;;
1140;SDS011;559;48.628;8.924;2023-06-22T10:22:08;57.50;;;55.30;;
1140;SDS011;559;48.628;8.924;2023-06-22T10:24:34;61.20;;;58.70;;
1140;SDS011;559;48.628;8.924;2023-06-22T10:27:03;41.63;;;40.00;;
1140;SDS011;559;48.628;8.924;2023-06-22T10:29:30;43.10;;;41.40;;
1140;SDS011;559;48.628;8.924;2023-06-22T10:31:57;45.90;;;43.57;;
1140;SDS011;559;48.628;8.924;2023-06-22T10:34:26;33.97;;;32.50;;
1140;SDS011;559;48.628;8.924;2023-06-22T10:36:53;30.80;;;29.10;;
1140;SDS011;559;48.628;8.924;2023-06-22T10:39:25;21.37;;;20.20;;
1140;SDS011;559;48.628;8.924;2023-06-22T10:41:52;35.93;;;34.53;;
1140;SDS011;559;48.628;8.924;2023-06-22T10:44:19;32.97;;;31.13;;
1140;SDS011;559;48.628;8.924;2023-06-22T10:46:47;30.60;;;29.20;;
1140;SDS011;559;48.628;8.924;2023-06-22T10:49:15;32.40;;;30.00;;
1140;SDS011;559;48.628;8.924;2023-06-22T10:51:42;26.53;;;24.93;;
1140;SDS011;559;48.628;8.924;2023-06-22T10:54:11;27.00;;;25.33;;
1140;SDS011;559;48.628;8.924;2023-06-22T10:56:52;26.03;;;24.63;;
1140;SDS011;559;48.628;8.924;2023-06-22T10:59:22;36.10;;;33.83;;
1140;SDS011;559;48.628;8.924;2023-06-22T11:01:54;32.80;;;31.00;;
1140;SDS011;559;48.628;8.924;2023-06-22T11:04:23;35.50;;;33.90;;
1140;SDS011;559;48.628;8.924;2023-06-22T11:06:50;34.80;;;33.10;;
1140;SDS011;559;48.628;8.924;2023-06-22T11:09:18;33.63;;;32.20;;
1140;SDS011;559;48.628;8.924;2023-06-22T11:11:50;27.80;;;26.63;;
1140;SDS011;559;48.628;8.924;2023-06-22T11:14:18;32.67;;;30.87;;
1140;SDS011;559;48.628;8.924;2023-06-22T11:16:44;31.83;;;30.33;;
1140;SDS011;559;48.628;8.924;2023-06-22T11:19:11;37.73;;;35.93;;
1140;SDS011;559;48.628;8.924;2023-06-22T11:21:38;27.23;;;25.57;;
1140;SDS011;559;48.628;8.924;2023-06-22T11:24:05;30.83;;;29.10;;
1140;SDS011;559;48.628;8.924;2023-06-22T11:26:32;21.37;;;20.13;;
1140;SDS011;559;48.628;8.924;2023-06-22T11:29:00;27.27;;;25.77;;
1140;SDS011;559;48.628;8.924;2023-06-22T11:31:30;20.47;;;18.80;;
1140;SDS011;559;48.628;8.924;2023-06-22T11:33:56;20.07;;;18.73;;
1140;SDS011;559;48.628;8.924;2023-06-22T11:36:23;24.57;;;23.07;;
1140;SDS011;559;48.628;8.924;2023-06-22T11:38:49;27.07;;;25.67;;
1140;SDS011;559;48.628;8.924;2023-06-22T11:41:16;47.77;;;45.70;;
1140;SDS011;559;48.628;8.924;2023-06-22T11:43:44;47.73;;;45.70;;
1140;SDS011;559;48.628;8.924;2023-06-22T11:46:12;48.73;;;46.77;;
1140;SDS011;559;48.628;8.924;2023-06-22T11:48:38;64.53;;;62.13;;
1140;SDS011;559;48.628;8.924;2023-06-22T11:51:05;67.87;;;65.20;;
1140;SDS011;559;48.628;8.924;2023-06-22T11:53:33;63.80;;;61.50;;
1140;SDS011;559;48.628;8.924;2023-06-22T11:56:00;63.10;;;60.70;;
1140;SDS011;559;48.628;8.924;2023-06-22T11:58:26;63.93;;;61.43;;
1140;SDS011;559;48.628;8.924;2023-06-22T12:00:53;67.03;;;64.27;;
1140;SDS011;559;48.628;8.924;2023-06-22T12:03:21;70.43;;;67.63;;
1140;SDS011;559;48.628;8.924;2023-06-22T12:05:47;72.87;;;70.17;;
1140;SDS011;559;48.628;8.924;2023-06-22T12:08:15;72.23;;;69.33;;
1140;SDS011;559;48.628;8.924;2023-06-22T12:10:42;55.03;;;52.80;;
1140;SDS011;559;48.628;8.924;2023-06-22T12:13:08;63.40;;;61.30;;
1140;SDS011;559;48.628;8.924;2023-06-22T12:15:35;56.13;;;53.67;;
1140;SDS011;559;48.628;8.924;2023-06-22T12:18:01;58.23;;;55.90;;
1140;SDS011;559;48.628;8.924;2023-06-22T12:20:29;58.77;;;56.53;;
1140;SDS011;559;48.628;8.924;2023-06-22T12:22:55;64.73;;;62.17;;
1140;SDS011;559;48.628;8.924;2023-06-22T12:25:23;72.27;;;69.53;;
1140;SDS011;559;48.628;8.924;2023-06-22T12:27:50;63.57;;;60.77;;
1140;SDS011;559;48.628;8.924;2023-06-22T12:30:16;60.80;;;58.33;;
1140;SDS011;559;48.628;8.924;2023-06-22T12:32:43;64.47;;;62.23;;
1140;SDS011;559;48.628;8.924;2023-06-22T12:35:09;57.33;;;55.13;;
1140;SDS011;559;48.628;8.924;2023-06-22T12:37:40;53.80;;;51.60;;
1140;SDS011;559;48.628;8.924;2023-06-22T12:40:07;52.30;;;50.30;;
1140;SDS011;559;48.628;8.924;2023-06-22T12:42:34;52.07;;;49.87;;
1140;SDS011;559;48.628;8.924;2023-06-22T12:45:01;62.27;;;59.67;;
1140;SDS011;559;48.628;8.924;2023-06-22T12:47:27;70.70;;;67.87;;
1140;SDS011;559;48.628;8.924;2023-06-22T12:49:54;80.20;;;77.23;;
1140;SDS011;559;48.628;8.924;2023-06-22T12:52:20;76.93;;;74.10;;
1140;SDS011;559;48.628;8.924;2023-06-22T12:54:48;75.90;;;73.07;;
1140;SDS011;559;48.628;8.924;2023-06-22T12:57:15;72.07;;;69.67;;
1140;SDS011;559;48.628;8.924;2023-06-22T12:59:42;76.33;;;73.73;;
1140;SDS011;559;48.628;8.924;2023-06-22T13:02:09;76.20;;;73.30;;
1140;SDS011;559;48.628;8.924;2023-06-22T13:04:35;70.03;;;67.23;;
1140;SDS011;559;48.628;8.924;2023-06-22T13:07:02;66.07;;;63.57;;
1140;SDS011;559;48.628;8.924;2023-06-22T13:09:29;69.73;;;67.03;;
1140;SDS011;559;48.628;8.924;2023-06-22T13:11:56;68.40;;;65.77;;
1140;SDS011;559;48.628;8.924;2023-06-22T13:14:23;68.43;;;65.27;;
1140;SDS011;559;48.628;8.924;2023-06-22T13:16:50;80.77;;;77.57;;
1140;SDS011;559;48.628;8.924;2023-06-22T13:19:16;81.63;;;78.73;;
1140;SDS011;559;48.628;8.924;2023-06-22T13:21:43;67.47;;;65.13;;
1140;SDS011;559;48.628;8.924;2023-06-22T13:24:09;63.17;;;60.63;;
1140;SDS011;559;48.628;8.924;2023-06-22T13:26:36;65.53;;;63.13;;
1140;SDS011;559;48.628;8.924;2023-06-22T13:29:04;73.87;;;71.30;;
1140;SDS011;559;48.628;8.924;2023-06-22T13:31:30;81.73;;;78.53;;
1140;SDS011;559;48.628;8.924;2023-06-22T13:33:57;77.63;;;74.57;;
1140;SDS011;559;48.628;8.924;2023-06-22T13:36:23;88.03;;;84.73;;
1140;SDS011;559;48.628;8.924;2023-06-22T13:38:50;70.87;;;68.30;;
1140;SDS011;559;48.628;8.924;2023-06-22T13:41:16;80.17;;;77.37;;
1140;SDS011;559;48.628;8.924;2023-06-22T13:43:43;65.53;;;62.50;;
1140;SDS011;559;48.628;8.924;2023-06-22T13:46:11;71.50;;;68.60;;
1140;SDS011;559;48.628;8.924;2023-06-22T13:48:37;81.67;;;78.40;;
1140;SDS011;559;48.628;8.924;2023-06-22T13:51:03;72.60;;;69.87;;
1140;SDS011;559;48.628;8.924;2023-06-22T13:53:31;65.47;;;62.47;;
1140;SDS011;559;48.628;8.924;2023-06-22T13:55:57;61.90;;;59.77;;
1140;SDS011;559;48.628;8.924;2023-06-22T13:58:25;51.83;;;50.00;;
1140;SDS011;559;48.628;8.924;2023-06-22T14:01:18;51.47;;;49.07;;
1140;SDS011;559;48.628;8.924;2023-06-22T14:06:43;44.43;;;42.10;;
1140;SDS011;559;48.628;8.924;2023-06-22T14:09:17;35.13;;;33.23;;
1140;SDS011;559;48.628;8.924;2023-06-22T14:13:29;36.40;;;34.63;;
1140;SDS011;559;48.628;8.924;2023-06-22T14:22:46;9.87;;;3.53;;
1140;SDS011;559;48.628;8.924;2023-06-22T14:25:12;6.47;;;3.83;;
1140;SDS011;559;48.628;8.924;2023-06-22T14:27:39;8.83;;;4.30;;
1140;SDS011;559;48.628;8.924;2023-06-22T14:30:06;7.23;;;3.40;;
1140;SDS011;559;48.628;8.924;2023-06-22T14:32:33;8.33;;;3.70;;
1140;SDS011;559;48.628;8.924;2023-06-22T14:34:59;5.47;;;3.77;;
1140;SDS011;559;48.628;8.924;2023-06-22T14:37:26;9.27;;;3.80;;
1140;SDS011;559;48.628;8.924;2023-06-22T14:39:53;7.80;;;4.60;;
1140;SDS011;559;48.628;8.924;2023-06-22T14:42:20;11.53;;;3.90;;
1140;SDS011;559;48.628;8.924;2023-06-22T14:44:47;6.33;;;4.10;;
1140;SDS011;559;48.628;8.924;2023-06-22T14:47:13;9.73;;;3.63;;
1140;SDS011;559;48.628;8.924;2023-06-22T14:49:41;11.90;;;3.70;;
1140;SDS011;559;48.628;8.924;2023-06-22T14:52:07;8.13;;;3.73;;
1140;SDS011;559;48.628;8.924;2023-06-22T14:54:34;6.47;;;3.00;;
1140;SDS011;559;48.628;8.924;2023-06-22T14:57:02;8.30;;;4.23;;
1140;SDS011;559;48.628;8.924;2023-06-22T14:59:28;7.30;;;3.77;;
1140;SDS011;559;48.628;8.924;2023-06-22T15:01:55;8.33;;;4.20;;
1140;SDS011;559;48.628;8.924;2023-06-22T15:04:21;11.30;;;3.30;;